createdAt,value
2019-04-27T00:01:19.792Z,9.17
2019-04-27T00:04:16.210Z,8.57
2019-04-27T00:06:54.094Z,8.07
2019-04-27T00:09:50.082Z,8.40
2019-04-27T00:12:16.546Z,9.63
2019-04-27T00:14:48.434Z,9.33
2019-04-27T00:17:48.649Z,8.73
2019-04-27T00:20:24.210Z,9.23
2019-04-27T00:23:00.308Z,8.53
2019-04-27T00:25:37.228Z,9.20
2019-04-27T00:28:15.098Z,8.43
2019-04-27T00:30:47.712Z,7.13
2019-04-27T00:33:17.541Z,5.17
2019-04-27T00:36:03.042Z,9.70
2019-04-27T00:38:41.505Z,9.47
2019-04-27T00:41:14.255Z,9.03
2019-04-27T00:43:44.638Z,8.67
2019-04-27T00:46:16.094Z,10.17
2019-04-27T00:48:46.231Z,9.23
2019-04-27T00:51:16.268Z,9.60
2019-04-27T00:53:48.310Z,9.83
2019-04-27T00:56:38.929Z,8.73
2019-04-27T00:59:24.006Z,9.50
2019-04-27T01:02:03.801Z,10.37
2019-04-27T01:04:34.168Z,10.07
2019-04-27T01:07:04.592Z,10.47
2019-04-27T01:09:34.366Z,10.57
2019-04-27T01:12:05.042Z,10.33
2019-04-27T01:14:34.973Z,10.83
2019-04-27T01:17:04.742Z,10.20
2019-04-27T01:19:34.367Z,11.53
2019-04-27T01:22:08.722Z,11.40
2019-04-27T01:24:39.375Z,11.97
2019-04-27T01:27:26.638Z,11.33
2019-04-27T01:29:58.784Z,11.60
2019-04-27T01:32:29.248Z,11.50
2019-04-27T01:34:59.614Z,11.93
2019-04-27T01:37:29.353Z,11.43
2019-04-27T01:39:59.122Z,11.47
2019-04-27T01:42:29.505Z,11.67
2019-04-27T01:44:59.531Z,13.20
2019-04-27T01:47:30.693Z,12.97
2019-04-27T01:50:00.771Z,13.27
2019-04-27T01:52:31.260Z,15.13
2019-04-27T01:55:02.620Z,14.70
2019-04-27T01:57:34.447Z,15.97
2019-04-27T02:00:19.372Z,15.87
2019-04-27T02:02:54.744Z,16.63
2019-04-27T02:05:39.124Z,17.43
2019-04-27T02:08:09.531Z,18.90
2019-04-27T02:10:39.674Z,18.10
2019-04-27T02:13:10.732Z,18.00
2019-04-27T02:15:41.004Z,17.77
2019-04-27T02:18:11.379Z,19.40
2019-04-27T02:20:44.285Z,18.87
2019-04-27T02:23:13.071Z,18.07
2019-04-27T02:25:42.745Z,18.47
2019-04-27T02:28:30.676Z,20.60
2019-04-27T02:31:40.423Z,18.97
2019-04-27T02:34:13.198Z,17.93
2019-04-27T02:36:42.939Z,19.53
2019-04-27T02:39:14.274Z,20.40
2019-04-27T02:41:44.107Z,21.30
2019-04-27T02:44:30.113Z,19.47
2019-04-27T02:47:01.034Z,20.93
2019-04-27T02:49:30.745Z,20.83
2019-04-27T02:52:19.980Z,20.17
2019-04-27T02:54:50.523Z,19.77
2019-04-27T02:57:21.971Z,20.63
2019-04-27T02:59:53.184Z,20.33
2019-04-27T03:02:31.875Z,21.17
2019-04-27T03:05:01.814Z,20.27
2019-04-27T03:07:33.375Z,21.47
2019-04-27T03:10:03.831Z,20.50
2019-04-27T03:12:42.005Z,21.30
2019-04-27T03:15:30.600Z,21.87
2019-04-27T03:18:10.191Z,21.67
2019-04-27T03:20:50.382Z,22.23
2019-04-27T03:23:20.130Z,22.50
2019-04-27T03:25:56.341Z,21.33
2019-04-27T03:28:26.333Z,21.83
2019-04-27T03:30:56.521Z,21.87
2019-04-27T03:33:27.069Z,22.83
2019-04-27T03:35:57.057Z,22.07
2019-04-27T03:38:29.991Z,20.83
2019-04-27T03:41:00.676Z,21.07
2019-04-27T03:43:30.816Z,21.73
2019-04-27T03:46:02.040Z,20.03
2019-04-27T03:48:31.561Z,18.53
2019-04-27T03:51:20.131Z,21.00
2019-04-27T03:54:14.053Z,20.07
2019-04-27T03:56:59.132Z,21.00
2019-04-27T03:59:34.327Z,18.33
2019-04-27T04:02:04.046Z,20.40
2019-04-27T04:04:34.628Z,21.33
2019-04-27T04:07:16.941Z,19.83
2019-04-27T04:09:46.867Z,22.73
2019-04-27T04:12:44.686Z,21.83
2019-04-27T04:15:23.124Z,20.70
2019-04-27T04:17:52.841Z,22.30
2019-04-27T04:20:22.816Z,20.83
2019-04-27T04:22:52.850Z,21.27
2019-04-27T04:25:23.176Z,20.80
2019-04-27T04:27:53.891Z,18.93
2019-04-27T04:30:24.310Z,18.90
2019-04-27T04:32:53.884Z,18.07
2019-04-27T04:35:25.535Z,18.33
2019-04-27T04:37:55.302Z,18.93
2019-04-27T04:40:35.066Z,18.27
2019-04-27T04:43:20.008Z,17.93
2019-04-27T04:46:13.079Z,19.03
2019-04-27T04:48:42.350Z,18.57
2019-04-27T04:51:12.240Z,18.07
2019-04-27T04:53:42.345Z,17.37
2019-04-27T04:56:12.215Z,18.60
2019-04-27T04:58:41.826Z,18.33
2019-04-27T05:01:12.327Z,18.20
2019-04-27T05:03:41.871Z,17.43
2019-04-27T05:06:11.639Z,18.53
2019-04-27T05:08:41.522Z,18.20
2019-04-27T05:11:11.562Z,18.40
2019-04-27T05:13:42.795Z,18.33
2019-04-27T05:16:12.645Z,18.73
2019-04-27T05:18:42.355Z,19.00
2019-04-27T05:21:23.767Z,19.17
2019-04-27T05:23:53.524Z,19.53
2019-04-27T05:26:23.701Z,19.47
2019-04-27T05:28:54.310Z,17.60
2019-04-27T05:31:25.215Z,17.67
2019-04-27T05:33:56.054Z,18.97
2019-04-27T05:36:26.016Z,19.17
2019-04-27T05:38:56.326Z,19.13
2019-04-27T05:41:26.548Z,21.27
2019-04-27T05:44:31.037Z,18.20
2019-04-27T05:47:19.862Z,18.17
2019-04-27T05:49:54.657Z,19.17
2019-04-27T05:52:29.977Z,20.00
2019-04-27T05:55:00.595Z,21.17
2019-04-27T05:57:31.410Z,21.07
2019-04-27T06:00:06.246Z,21.33
2019-04-27T06:02:36.039Z,19.60
2019-04-27T06:05:08.693Z,21.60
2019-04-27T06:07:39.594Z,19.63
2019-04-27T06:10:09.690Z,19.60
2019-04-27T06:12:39.638Z,20.20
2019-04-27T06:15:14.147Z,20.27
2019-04-27T06:17:44.719Z,19.70
2019-04-27T06:20:16.306Z,20.10
2019-04-27T06:22:48.938Z,20.37
2019-04-27T06:25:22.488Z,17.60
2019-04-27T06:27:55.467Z,20.20
2019-04-27T06:30:24.849Z,19.40
2019-04-27T06:32:55.068Z,18.87
2019-04-27T06:35:25.219Z,17.83
2019-04-27T06:38:00.186Z,19.67
2019-04-27T06:40:31.574Z,19.17
2019-04-27T06:43:03.281Z,18.63
2019-04-27T06:45:32.855Z,19.30
2019-04-27T06:48:03.688Z,19.20
2019-04-27T06:50:33.190Z,18.07
2019-04-27T06:53:03.110Z,18.93
2019-04-27T06:55:33.401Z,18.73
2019-04-27T06:58:04.450Z,17.57
2019-04-27T07:00:39.524Z,18.10
2019-04-27T07:03:12.125Z,18.27
2019-04-27T07:05:41.841Z,18.30
2019-04-27T07:08:12.589Z,18.90
2019-04-27T07:10:44.564Z,18.00
2019-04-27T07:13:15.495Z,17.60
2019-04-27T07:15:48.523Z,18.80
2019-04-27T07:18:18.727Z,17.47
2019-04-27T07:20:48.612Z,17.43
2019-04-27T07:23:18.754Z,18.87
2019-04-27T07:25:50.938Z,18.57
2019-04-27T07:28:21.046Z,17.67
2019-04-27T07:30:50.609Z,15.73
2019-04-27T07:33:22.563Z,16.83
2019-04-27T07:35:52.628Z,16.93
2019-04-27T07:38:22.452Z,16.60
2019-04-27T07:40:54.234Z,15.37
2019-04-27T07:43:39.884Z,15.67
2019-04-27T07:46:10.464Z,16.00
2019-04-27T07:48:40.650Z,15.97
2019-04-27T07:51:11.103Z,15.80
2019-04-27T07:53:41.943Z,14.80
2019-04-27T07:56:11.952Z,15.60
2019-04-27T07:58:42.360Z,14.93
2019-04-27T08:01:14.292Z,14.37
2019-04-27T08:03:48.930Z,14.93
2019-04-27T08:06:19.156Z,14.77
2019-04-27T08:08:49.299Z,15.37
2019-04-27T08:11:19.893Z,14.23
2019-04-27T08:13:50.229Z,13.40
2019-04-27T08:16:20.739Z,13.37
2019-04-27T08:18:51.764Z,13.80
2019-04-27T08:21:23.108Z,12.57
2019-04-27T08:23:53.146Z,12.27
2019-04-27T08:26:35.211Z,12.27
2019-04-27T08:29:24.545Z,12.60
2019-04-27T08:31:58.563Z,11.83
2019-04-27T08:34:35.355Z,11.93
2019-04-27T08:37:09.133Z,11.47
2019-04-27T08:39:39.778Z,15.63
2019-04-27T08:42:09.638Z,11.70
2019-04-27T08:44:39.842Z,9.20
2019-04-27T08:47:09.686Z,10.87
2019-04-27T08:49:39.837Z,9.43
2019-04-27T08:52:09.635Z,10.37
2019-04-27T08:54:39.593Z,12.00
2019-04-27T08:57:09.820Z,10.83
2019-04-27T08:59:39.600Z,10.67
2019-04-27T09:02:09.362Z,10.30
2019-04-27T09:04:40.511Z,10.20
2019-04-27T09:07:29.466Z,9.80
2019-04-27T09:10:05.667Z,10.50
2019-04-27T09:12:50.102Z,10.87
2019-04-27T09:15:39.985Z,9.30
2019-04-27T09:18:10.376Z,9.73
2019-04-27T09:20:43.657Z,8.77
2019-04-27T09:23:13.335Z,8.80
2019-04-27T09:25:43.367Z,8.70
2019-04-27T09:28:14.410Z,8.10
2019-04-27T09:30:44.543Z,7.17
2019-04-27T09:33:15.400Z,8.07
2019-04-27T09:35:46.594Z,7.97
2019-04-27T09:38:18.535Z,8.27
2019-04-27T09:40:48.106Z,8.43
2019-04-27T09:43:17.457Z,8.57
2019-04-27T09:45:47.274Z,8.97
2019-04-27T09:48:17.674Z,8.60
2019-04-27T09:50:48.672Z,8.57
2019-04-27T09:53:18.593Z,8.70
2019-04-27T09:55:47.891Z,7.97
2019-04-27T09:58:23.140Z,8.33
2019-04-27T10:00:52.521Z,8.50
2019-04-27T10:03:23.660Z,7.60
2019-04-27T10:05:53.954Z,7.23
2019-04-27T10:08:26.152Z,7.73
2019-04-27T10:10:57.111Z,7.67
2019-04-27T10:13:29.183Z,8.30
2019-04-27T10:15:59.980Z,7.77
2019-04-27T10:18:30.134Z,7.40
2019-04-27T10:21:02.236Z,7.13
2019-04-27T10:23:31.895Z,6.97
2019-04-27T10:26:02.116Z,6.90
2019-04-27T10:28:32.110Z,6.73
2019-04-27T10:31:03.483Z,6.93
2019-04-27T10:33:35.765Z,6.60
2019-04-27T10:36:06.972Z,6.47
2019-04-27T10:38:39.948Z,6.70
2019-04-27T10:41:13.652Z,6.70
2019-04-27T10:43:43.787Z,6.33
2019-04-27T10:46:15.727Z,6.27
2019-04-27T10:48:45.921Z,5.30
2019-04-27T10:51:16.105Z,5.70
2019-04-27T10:53:46.025Z,5.90
2019-04-27T10:56:19.328Z,5.40
2019-04-27T10:58:49.258Z,5.97
2019-04-27T11:01:22.569Z,7.03
2019-04-27T11:04:25.958Z,6.00
2019-04-27T11:07:02.586Z,5.70
2019-04-27T11:09:32.420Z,6.10
2019-04-27T11:12:02.665Z,6.93
2019-04-27T11:14:41.738Z,6.23
2019-04-27T11:17:12.477Z,6.17
2019-04-27T11:19:42.392Z,5.53
2019-04-27T11:22:12.173Z,5.57
2019-04-27T11:24:42.184Z,5.60
2019-04-27T11:27:13.006Z,4.97
2019-04-27T11:29:42.560Z,4.67
2019-04-27T11:32:12.421Z,4.13
2019-04-27T11:35:19.326Z,4.30
2019-04-27T11:37:50.747Z,3.60
2019-04-27T11:40:22.175Z,3.57
2019-04-27T11:42:52.856Z,3.97
2019-04-27T11:45:26.484Z,3.80
2019-04-27T11:47:59.825Z,3.70
2019-04-27T11:50:29.477Z,3.37
2019-04-27T11:52:59.193Z,3.37
2019-04-27T11:55:29.465Z,3.70
2019-04-27T11:57:59.893Z,4.50
2019-04-27T12:00:29.935Z,3.60
2019-04-27T12:03:01.323Z,2.90
2019-04-27T12:05:32.423Z,2.70
2019-04-27T12:08:01.850Z,3.50
2019-04-27T12:10:31.765Z,3.80
2019-04-27T12:13:01.385Z,3.53
2019-04-27T12:15:31.204Z,4.10
2019-04-27T12:18:01.386Z,2.40
2019-04-27T12:20:32.903Z,1.60
2019-04-27T12:23:02.680Z,1.50
2019-04-27T12:25:32.540Z,1.13
2019-04-27T12:28:17.911Z,1.10
2019-04-27T12:31:08.801Z,1.07
2019-04-27T12:33:40.761Z,1.27
2019-04-27T12:36:10.488Z,1.00
2019-04-27T12:38:42.506Z,1.00
2019-04-27T12:41:13.616Z,1.00
2019-04-27T12:43:43.455Z,1.10
2019-04-27T12:46:16.064Z,1.00
2019-04-27T12:48:46.100Z,1.03
2019-04-27T12:51:16.123Z,0.90
2019-04-27T12:54:16.518Z,1.20
2019-04-27T13:00:19.437Z,1.20
2019-04-27T13:02:52.000Z,1.17
2019-04-27T13:05:21.474Z,1.00
2019-04-27T13:07:51.440Z,1.10
2019-04-27T13:10:24.699Z,1.70
2019-04-27T13:12:56.205Z,1.13
2019-04-27T13:15:28.270Z,1.10
2019-04-27T13:17:58.937Z,1.30
2019-04-27T13:20:28.434Z,1.13
2019-04-27T13:22:58.196Z,1.27
2019-04-27T13:25:29.393Z,1.20
2019-04-27T13:27:58.929Z,1.30
2019-04-27T13:30:28.463Z,3.17
2019-04-27T13:32:58.376Z,5.83
2019-04-27T13:35:28.052Z,3.97
2019-04-27T13:37:57.588Z,1.87
2019-04-27T13:40:27.498Z,1.17
2019-04-27T13:43:16.695Z,1.00
2019-04-27T13:46:08.001Z,1.07
2019-04-27T13:48:56.272Z,1.30
2019-04-27T13:51:44.194Z,1.20
2019-04-27T13:54:23.121Z,1.20
2019-04-27T13:56:47.645Z,1.00
2019-04-27T13:59:18.716Z,2.30
2019-04-27T14:01:48.829Z,1.30
2019-04-27T14:04:19.166Z,1.50
2019-04-27T14:06:50.747Z,1.20
2019-04-27T14:09:21.020Z,1.00
2019-04-27T14:11:52.980Z,1.63
2019-04-27T14:14:24.399Z,1.40
2019-04-27T14:16:54.636Z,1.37
2019-04-27T14:19:25.569Z,1.40
2019-04-27T14:21:55.114Z,1.00
2019-04-27T14:24:38.789Z,1.20
2019-04-27T14:27:09.933Z,1.17
2019-04-27T14:29:40.210Z,1.30
2019-04-27T14:32:09.779Z,1.23
2019-04-27T14:34:40.073Z,0.90
2019-04-27T14:37:11.800Z,1.00
2019-04-27T14:39:42.348Z,1.13
2019-04-27T14:42:11.797Z,1.10
2019-04-27T14:44:45.285Z,1.00
2019-04-27T14:47:18.861Z,1.00
2019-04-27T14:49:49.263Z,1.20
2019-04-27T14:52:18.869Z,1.17
2019-04-27T14:54:50.789Z,1.40
2019-04-27T14:57:20.567Z,1.23
2019-04-27T14:59:52.839Z,1.37
2019-04-27T15:02:22.474Z,1.50
2019-04-27T15:04:52.200Z,1.10
2019-04-27T15:07:22.161Z,1.37
2019-04-27T15:09:54.404Z,1.47
2019-04-27T15:12:30.413Z,1.20
2019-04-27T15:14:57.387Z,1.20
2019-04-27T15:17:27.253Z,1.20
2019-04-27T15:20:02.266Z,2.00
2019-04-27T15:22:32.768Z,1.90
2019-04-27T15:25:35.008Z,1.70
2019-04-27T15:28:16.758Z,2.00
2019-04-27T15:31:26.250Z,1.70
2019-04-27T15:34:11.088Z,1.17
2019-04-27T15:37:00.703Z,1.30
2019-04-27T15:39:50.563Z,1.83
2019-04-27T15:42:28.333Z,1.70
2019-04-27T15:44:58.505Z,1.90
2019-04-27T15:47:28.620Z,1.80
2019-04-27T15:49:58.958Z,1.70
2019-04-27T15:52:30.260Z,1.90
2019-04-27T15:55:02.877Z,2.50
2019-04-27T15:57:32.369Z,2.60
2019-04-27T16:00:04.874Z,1.87
2019-04-27T16:02:34.482Z,2.50
2019-04-27T16:05:08.229Z,2.10
2019-04-27T16:07:38.889Z,2.00
2019-04-27T16:10:09.054Z,2.10
2019-04-27T16:12:47.481Z,2.40
2019-04-27T16:15:13.393Z,2.10
2019-04-27T16:17:50.931Z,2.20
2019-04-27T16:20:29.250Z,2.20
2019-04-27T16:22:51.161Z,1.80
2019-04-27T16:25:23.533Z,2.20
2019-04-27T16:27:52.454Z,2.00
2019-04-27T16:30:25.007Z,1.80
2019-04-27T16:32:55.956Z,1.70
2019-04-27T16:35:25.435Z,2.00
2019-04-27T16:38:18.389Z,1.90
2019-04-27T16:40:48.673Z,2.40
2019-04-27T16:43:18.840Z,1.60
2019-04-27T16:45:48.848Z,1.70
2019-04-27T16:48:19.662Z,1.50
2019-04-27T16:50:49.191Z,1.60
2019-04-27T16:53:19.117Z,1.27
2019-04-27T16:56:01.018Z,1.50
2019-04-27T16:58:22.665Z,1.60
2019-04-27T17:00:52.823Z,1.50
2019-04-27T17:03:31.551Z,1.30
2019-04-27T17:06:04.100Z,1.50
2019-04-27T17:08:34.400Z,1.47
2019-04-27T17:11:11.407Z,1.57
2019-04-27T17:13:44.330Z,1.40
2019-04-27T17:16:34.063Z,1.60
2019-04-27T17:19:19.719Z,1.40
2019-04-27T17:21:50.227Z,1.50
2019-04-27T17:24:46.364Z,1.40
2019-04-27T17:27:16.298Z,1.63
2019-04-27T17:29:50.098Z,1.57
2019-04-27T17:32:39.050Z,1.50
2019-04-27T17:35:14.581Z,1.60
2019-04-27T17:37:40.159Z,1.73
2019-04-27T17:40:10.787Z,1.73
2019-04-27T17:42:43.094Z,1.90
2019-04-27T17:45:13.533Z,1.70
2019-04-27T17:47:43.401Z,1.80
2019-04-27T17:50:18.458Z,1.63
2019-04-27T17:52:48.498Z,1.80
2019-04-27T17:55:24.068Z,1.80
2019-04-27T17:57:50.418Z,1.63
2019-04-27T18:00:21.247Z,2.20
2019-04-27T18:02:53.423Z,1.67
2019-04-27T18:05:28.397Z,1.60
2019-04-27T18:07:59.122Z,2.00
2019-04-27T18:10:28.909Z,1.40
2019-04-27T18:13:00.858Z,1.90
2019-04-27T18:15:31.109Z,1.50
2019-04-27T18:18:03.884Z,1.90
2019-04-27T18:20:33.180Z,1.90
2019-04-27T18:23:15.235Z,2.03
2019-04-27T18:25:48.127Z,2.20
2019-04-27T18:28:21.638Z,2.00
2019-04-27T18:31:17.728Z,2.40
2019-04-27T18:33:49.010Z,2.00
2019-04-27T18:36:19.202Z,1.63
2019-04-27T18:38:49.787Z,1.80
2019-04-27T18:41:20.078Z,1.70
2019-04-27T18:43:52.139Z,1.60
2019-04-27T18:46:24.515Z,1.57
2019-04-27T18:49:11.307Z,1.83
2019-04-27T18:52:09.749Z,1.70
2019-04-27T18:54:41.877Z,2.00
2019-04-27T18:57:15.250Z,1.77
2019-04-27T18:59:43.005Z,1.70
2019-04-27T19:02:16.015Z,1.93
2019-04-27T19:04:50.153Z,1.90
2019-04-27T19:07:21.930Z,1.90
2019-04-27T19:09:53.380Z,1.80
2019-04-27T19:12:23.798Z,1.90
2019-04-27T19:14:53.457Z,1.93
2019-04-27T19:17:24.291Z,1.77
2019-04-27T19:19:55.334Z,1.70
2019-04-27T19:22:24.853Z,1.60
2019-04-27T19:24:55.219Z,2.10
2019-04-27T19:27:48.567Z,1.80
2019-04-27T19:30:46.554Z,1.90
2019-04-27T19:33:18.144Z,2.90
2019-04-27T19:35:48.795Z,2.10
2019-04-27T19:38:18.679Z,2.20
2019-04-27T19:40:50.890Z,1.80
2019-04-27T19:43:21.449Z,2.07
2019-04-27T19:45:58.488Z,2.00
2019-04-27T19:48:31.996Z,2.03
2019-04-27T19:51:03.952Z,2.10
2019-04-27T19:53:35.763Z,1.73
2019-04-27T19:56:07.419Z,1.30
2019-04-27T19:58:43.001Z,1.70
2019-04-27T20:01:38.355Z,2.03
2019-04-27T20:04:30.871Z,1.80
2019-04-27T20:07:10.395Z,1.50
2019-04-27T20:09:59.646Z,1.73
2019-04-27T20:12:31.454Z,2.20
2019-04-27T20:15:05.416Z,2.10
2019-04-27T20:17:36.989Z,1.70
2019-04-27T20:20:07.436Z,2.10
2019-04-27T20:22:38.764Z,1.80
2019-04-27T20:25:11.223Z,2.03
2019-04-27T20:27:49.326Z,1.90
2019-04-27T20:30:18.793Z,2.07
2019-04-27T20:33:00.990Z,1.50
2019-04-27T20:35:32.542Z,1.97
2019-04-27T20:38:02.057Z,2.20
2019-04-27T20:40:33.350Z,2.67
2019-04-27T20:43:04.042Z,2.50
2019-04-27T20:45:36.773Z,3.10
2019-04-27T20:48:11.098Z,3.40
2019-04-27T20:50:41.538Z,3.50
2019-04-27T20:53:20.867Z,3.10
2019-04-27T20:55:51.052Z,1.70
2019-04-27T20:58:25.058Z,2.30
2019-04-27T21:00:54.940Z,2.63
2019-04-27T21:03:34.363Z,3.33
2019-04-27T21:06:11.847Z,6.37
2019-04-27T21:08:42.110Z,3.80
2019-04-27T21:11:17.041Z,3.33
2019-04-27T21:13:48.590Z,3.23
2019-04-27T21:16:21.141Z,2.80
2019-04-27T21:18:53.185Z,2.40
2019-04-27T21:21:30.503Z,2.80
2019-04-27T21:24:00.991Z,3.60
2019-04-27T21:26:34.998Z,3.43
2019-04-27T21:29:11.567Z,2.83
2019-04-27T21:31:42.140Z,2.50
2019-04-27T21:34:14.497Z,3.23
2019-04-27T21:36:46.175Z,3.13
2019-04-27T21:39:22.736Z,2.63
2019-04-27T21:42:11.097Z,2.80
2019-04-27T21:44:42.187Z,2.40
2019-04-27T21:47:12.567Z,2.70
2019-04-27T21:49:42.929Z,3.07
2019-04-27T21:52:29.487Z,2.80
2019-04-27T21:55:01.522Z,2.30
2019-04-27T21:57:31.572Z,2.60
2019-04-27T22:00:07.206Z,2.70
2019-04-27T22:02:36.735Z,2.87
2019-04-27T22:05:07.795Z,2.47
2019-04-27T22:07:38.626Z,2.70
2019-04-27T22:10:08.289Z,2.53
2019-04-27T22:12:39.153Z,3.00
2019-04-27T22:15:11.125Z,2.70
2019-04-27T22:17:42.357Z,2.70
2019-04-27T22:20:11.909Z,2.37
2019-04-27T22:22:46.821Z,2.20
2019-04-27T22:25:29.699Z,2.37
2019-04-27T22:28:01.562Z,1.70
2019-04-27T22:30:32.618Z,2.27
2019-04-27T22:33:03.163Z,2.60
2019-04-27T22:35:36.475Z,2.00
2019-04-27T22:38:06.026Z,2.33
2019-04-27T22:40:41.901Z,2.00
2019-04-27T22:43:31.578Z,2.10
2019-04-27T22:46:03.585Z,2.30
2019-04-27T22:48:34.063Z,2.60
2019-04-27T22:51:04.876Z,2.47
2019-04-27T22:53:35.920Z,2.57
2019-04-27T22:56:14.081Z,2.70
2019-04-27T22:58:59.983Z,2.90
2019-04-27T23:01:26.894Z,3.27
2019-04-27T23:03:57.858Z,3.00
2019-04-27T23:06:28.983Z,3.47
2019-04-27T23:09:01.662Z,3.30
2019-04-27T23:11:34.121Z,3.60
2019-04-27T23:14:05.446Z,3.67
2019-04-27T23:16:37.503Z,4.23
2019-04-27T23:19:07.088Z,4.00
2019-04-27T23:21:37.365Z,3.70
2019-04-27T23:24:08.589Z,4.17
2019-04-27T23:26:38.432Z,4.50
2019-04-27T23:29:13.745Z,5.10
2019-04-27T23:31:54.249Z,4.60
2019-04-27T23:34:24.303Z,4.40
2019-04-27T23:36:54.363Z,5.10
2019-04-27T23:39:26.604Z,5.07
2019-04-27T23:41:57.001Z,5.43
2019-04-27T23:44:27.010Z,5.23
2019-04-27T23:46:56.571Z,5.23
2019-04-27T23:49:26.845Z,5.90
2019-04-27T23:52:06.181Z,5.60
2019-04-27T23:54:38.636Z,5.20
2019-04-27T23:57:09.050Z,5.67
2019-04-27T23:59:38.520Z,5.23
